createdAt,value
2023-02-14T00:01:55.849Z,103307.28
2023-02-14T00:04:22.572Z,103306.31
2023-02-14T00:06:49.290Z,103308.88
2023-02-14T00:09:18.634Z,103306.19
2023-02-14T00:11:45.721Z,103303.69
2023-02-14T00:14:31.804Z,103302.78
2023-02-14T00:16:58.631Z,103313.41
2023-02-14T00:19:25.386Z,103309.06
2023-02-14T00:21:52.352Z,103307.28
2023-02-14T00:24:28.383Z,103315.13
2023-02-14T00:26:55.123Z,103327.34
2023-02-14T00:29:30.164Z,103315.03
2023-02-14T00:31:57.115Z,103315.22
2023-02-14T00:34:24.313Z,103321.50
2023-02-14T00:36:51.166Z,103319.88
2023-02-14T00:39:18.652Z,103317.44
2023-02-14T00:41:45.690Z,103306.19
2023-02-14T00:44:14.222Z,103310.50
2023-02-14T00:46:41.332Z,103312.88
2023-02-14T00:49:08.437Z,103306.56
2023-02-14T00:51:35.475Z,103303.84
2023-02-14T00:54:03.373Z,103297.00
2023-02-14T00:56:31.013Z,103306.28
2023-02-14T00:58:57.734Z,103302.75
2023-02-14T01:01:24.463Z,103303.63
2023-02-14T01:03:51.234Z,103299.50
2023-02-14T01:06:19.002Z,103295.06
2023-02-14T01:08:45.773Z,103298.22
2023-02-14T01:11:21.618Z,103293.28
2023-02-14T01:13:50.024Z,103292.41
2023-02-14T01:16:20.053Z,103290.66
2023-02-14T01:18:48.352Z,103290.50
2023-02-14T01:21:17.943Z,103293.28
2023-02-14T01:23:45.818Z,103298.31
2023-02-14T01:26:13.626Z,103287.66
2023-02-14T01:28:41.580Z,103284.41
2023-02-14T01:31:14.061Z,103283.72
2023-02-14T01:33:42.028Z,103278.31
2023-02-14T01:36:19.435Z,103268.78
2023-02-14T01:38:46.496Z,103274.84
2023-02-14T01:41:13.796Z,103272.97
2023-02-14T01:44:10.850Z,103269.03
2023-02-14T01:46:38.046Z,103271.44
2023-02-14T01:49:11.165Z,103279.41
2023-02-14T01:51:46.469Z,103271.53
2023-02-14T01:54:13.595Z,103274.31
2023-02-14T01:56:49.291Z,103266.28
2023-02-14T01:59:21.521Z,103267.75
2023-02-14T02:01:50.689Z,103267.84
2023-02-14T02:04:35.642Z,103254.88
2023-02-14T02:07:07.348Z,103254.03
2023-02-14T02:09:46.267Z,103256.59
2023-02-14T02:12:13.500Z,103255.00
2023-02-14T02:14:41.072Z,103243.63
2023-02-14T02:17:43.030Z,103250.53
2023-02-14T02:20:36.437Z,103249.75
2023-02-14T02:23:34.217Z,103240.72
2023-02-14T02:26:23.804Z,103244.88
2023-02-14T02:29:11.336Z,103244.00
2023-02-14T02:31:59.536Z,103242.91
2023-02-14T02:35:07.449Z,103240.44
2023-02-14T02:37:55.707Z,103237.88
2023-02-14T02:40:49.119Z,103231.69
2023-02-14T02:43:53.749Z,103225.66
2023-02-14T02:46:49.771Z,103229.22
2023-02-14T02:49:59.776Z,103238.63
2023-02-14T02:53:04.219Z,103228.41
2023-02-14T02:55:51.664Z,103234.94
2023-02-14T02:58:20.344Z,103237.22
2023-02-14T03:00:50.311Z,103234.34
2023-02-14T03:03:36.420Z,103230.75
2023-02-14T03:06:03.359Z,103229.34
2023-02-14T03:08:30.090Z,103232.03
2023-02-14T03:10:57.622Z,103233.78
2023-02-14T03:13:42.282Z,103229.28
2023-02-14T03:16:11.869Z,103231.03
2023-02-14T03:19:31.114Z,103231.03
2023-02-14T03:22:11.671Z,103233.56
2023-02-14T03:24:49.766Z,103225.59
2023-02-14T03:27:32.755Z,103220.47
2023-02-14T03:30:02.701Z,103227.53
2023-02-14T03:32:48.078Z,103219.53
2023-02-14T03:35:36.620Z,103219.84
2023-02-14T03:38:15.558Z,103228.16
2023-02-14T03:40:54.604Z,103225.66
2023-02-14T03:43:28.369Z,103218.81
2023-02-14T03:46:02.312Z,103224.88
2023-02-14T03:48:31.119Z,103217.13
2023-02-14T03:51:00.484Z,103215.41
2023-02-14T03:53:31.682Z,103207.44
2023-02-14T03:56:13.087Z,103204.78
2023-02-14T03:58:46.909Z,103205.63
2023-02-14T04:01:19.362Z,103213.44
2023-02-14T04:03:47.370Z,103203.25
2023-02-14T04:06:14.215Z,103204.88
2023-02-14T04:08:40.941Z,103196.84
2023-02-14T04:11:07.644Z,103194.47
2023-02-14T04:13:36.829Z,103187.44
2023-02-14T04:16:03.876Z,103187.47
2023-02-14T04:18:49.337Z,103198.94
2023-02-14T04:21:16.670Z,103199.00
2023-02-14T04:23:43.330Z,103199.63
2023-02-14T04:26:10.058Z,103197.97
2023-02-14T04:28:36.747Z,103202.41
2023-02-14T04:31:06.740Z,103198.06
2023-02-14T04:33:34.306Z,103196.22
2023-02-14T04:36:01.177Z,103201.34
2023-02-14T04:38:27.799Z,103191.78
2023-02-14T04:40:54.485Z,103191.06
2023-02-14T04:43:21.205Z,103193.63
2023-02-14T04:45:47.933Z,103184.88
2023-02-14T04:48:14.806Z,103194.63
2023-02-14T04:50:41.517Z,103186.63
2023-02-14T04:53:10.893Z,103189.38
2023-02-14T04:55:37.639Z,103188.56
2023-02-14T04:58:04.298Z,103187.75
2023-02-14T05:00:31.031Z,103192.81
2023-02-14T05:02:57.698Z,103190.19
2023-02-14T05:05:24.332Z,103184.94
2023-02-14T05:07:51.045Z,103178.97
2023-02-14T05:10:17.784Z,103180.59
2023-02-14T05:12:44.685Z,103178.75
2023-02-14T05:15:11.282Z,103187.69
2023-02-14T05:17:37.964Z,103182.31
2023-02-14T05:20:05.940Z,103185.75
2023-02-14T05:22:32.610Z,103180.09
2023-02-14T05:24:59.206Z,103177.28
2023-02-14T05:27:25.936Z,103181.56
2023-02-14T05:29:52.630Z,103179.72
2023-02-14T05:32:19.295Z,103179.69
2023-02-14T05:34:45.967Z,103182.28
2023-02-14T05:37:12.610Z,103177.16
2023-02-14T05:39:39.355Z,103176.31
2023-02-14T05:42:06.011Z,103181.56
2023-02-14T05:44:32.786Z,103181.47
2023-02-14T05:46:59.438Z,103181.34
2023-02-14T05:49:26.188Z,103176.31
2023-02-14T05:51:52.983Z,103172.94
2023-02-14T05:54:19.666Z,103171.41
2023-02-14T05:56:46.371Z,103168.75
2023-02-14T05:59:14.556Z,103165.22
2023-02-14T06:01:41.240Z,103172.25
2023-02-14T06:04:07.915Z,103171.28
2023-02-14T06:06:36.578Z,103166.88
2023-02-14T06:09:03.576Z,103168.63
2023-02-14T06:11:30.303Z,103170.31
2023-02-14T06:13:56.945Z,103164.78
2023-02-14T06:16:23.749Z,103158.16
2023-02-14T06:18:50.491Z,103171.94
2023-02-14T06:21:17.188Z,103173.75
2023-02-14T06:23:43.837Z,103170.31
2023-02-14T06:26:10.523Z,103172.97
2023-02-14T06:28:37.233Z,103176.19
2023-02-14T06:31:04.399Z,103182.47
2023-02-14T06:33:31.335Z,103179.81
2023-02-14T06:35:58.040Z,103179.94
2023-02-14T06:38:24.766Z,103173.97
2023-02-14T06:40:51.441Z,103186.00
2023-02-14T06:43:18.101Z,103185.19
2023-02-14T06:45:46.673Z,103183.31
2023-02-14T06:48:13.381Z,103189.19
2023-02-14T06:50:40.115Z,103186.72
2023-02-14T06:53:06.850Z,103185.88
2023-02-14T06:55:33.509Z,103192.00
2023-02-14T06:58:00.166Z,103189.41
2023-02-14T07:00:26.989Z,103190.44
2023-02-14T07:02:53.676Z,103187.94
2023-02-14T07:05:20.398Z,103191.88
2023-02-14T07:07:47.108Z,103192.78
2023-02-14T07:10:14.648Z,103184.34
2023-02-14T07:12:41.350Z,103181.47
2023-02-14T07:15:09.651Z,103182.69
2023-02-14T07:17:36.506Z,103181.94
2023-02-14T07:20:03.913Z,103180.91
2023-02-14T07:22:30.598Z,103173.16
2023-02-14T07:24:57.291Z,103177.53
2023-02-14T07:27:24.286Z,103181.75
2023-02-14T07:29:51.012Z,103179.97
2023-02-14T07:32:18.120Z,103175.84
2023-02-14T07:34:45.008Z,103179.94
2023-02-14T07:37:11.771Z,103177.66
2023-02-14T07:39:38.393Z,103169.84
2023-02-14T07:42:05.132Z,103174.88
2023-02-14T07:44:32.572Z,103178.31
2023-02-14T07:46:59.277Z,103181.81
2023-02-14T07:49:26.037Z,103170.56
2023-02-14T07:51:52.909Z,103175.09
2023-02-14T07:54:20.340Z,103173.34
2023-02-14T07:56:47.133Z,103184.66
2023-02-14T07:59:13.930Z,103180.22
2023-02-14T08:01:40.691Z,103172.41
2023-02-14T08:04:07.417Z,103170.66
2023-02-14T08:06:34.170Z,103170.94
2023-02-14T08:09:00.944Z,103176.06
2023-02-14T08:11:46.085Z,103174.41
2023-02-14T08:14:12.740Z,103178.81
2023-02-14T08:16:39.796Z,103176.09
2023-02-14T08:19:06.661Z,103180.47
2023-02-14T08:21:33.776Z,103182.94
2023-02-14T08:24:00.834Z,103178.44
2023-02-14T08:26:27.616Z,103167.41
2023-02-14T08:28:54.507Z,103174.53
2023-02-14T08:31:34.294Z,103169.34
2023-02-14T08:34:02.152Z,103171.00
2023-02-14T08:36:28.852Z,103164.13
2023-02-14T08:38:56.104Z,103171.88
2023-02-14T08:41:22.835Z,103167.72
2023-02-14T08:43:50.149Z,103174.66
2023-02-14T08:46:17.301Z,103176.50
2023-02-14T08:48:44.359Z,103174.03
2023-02-14T08:51:13.724Z,103166.16
2023-02-14T08:53:41.880Z,103180.84
2023-02-14T08:56:10.506Z,103180.91
2023-02-14T08:58:38.750Z,103169.78
2023-02-14T09:01:16.946Z,103168.97
2023-02-14T09:03:44.444Z,103174.19
2023-02-14T09:06:14.523Z,103169.78
2023-02-14T09:08:41.250Z,103160.94
2023-02-14T09:11:12.206Z,103168.09
2023-02-14T09:13:38.993Z,103164.63
2023-02-14T09:16:07.508Z,103159.28
2023-02-14T09:18:34.463Z,103159.31
2023-02-14T09:21:01.753Z,103159.25
2023-02-14T09:23:28.714Z,103157.59
2023-02-14T09:26:03.589Z,103154.19
2023-02-14T09:28:31.145Z,103158.56
2023-02-14T09:30:59.034Z,103151.25
2023-02-14T09:33:29.227Z,103154.00
2023-02-14T09:36:16.515Z,103146.56
2023-02-14T09:38:43.223Z,103153.59
2023-02-14T09:41:20.338Z,103136.63
2023-02-14T09:44:01.599Z,103147.19
2023-02-14T09:46:30.986Z,103139.09
2023-02-14T09:48:59.631Z,103141.59
2023-02-14T09:51:29.396Z,103135.28
2023-02-14T09:54:05.758Z,103130.16
2023-02-14T09:56:57.146Z,103129.81
2023-02-14T09:59:39.634Z,103125.72
2023-02-14T10:02:06.799Z,103137.50
2023-02-14T10:05:02.899Z,103138.69
2023-02-14T10:07:54.297Z,103126.13
2023-02-14T10:10:23.622Z,103129.28
2023-02-14T10:12:56.698Z,103120.38
2023-02-14T10:15:40.588Z,103130.59
2023-02-14T10:18:19.301Z,103130.53
2023-02-14T10:20:53.130Z,103132.56
2023-02-14T10:23:38.266Z,103134.53
2023-02-14T10:26:12.771Z,103125.22
2023-02-14T10:28:45.429Z,103130.16
2023-02-14T10:31:41.796Z,103133.47
2023-02-14T10:34:32.791Z,103125.47
2023-02-14T10:37:37.978Z,103124.03
2023-02-14T10:40:17.556Z,103123.22
2023-02-14T10:42:59.481Z,103115.88
2023-02-14T10:45:53.561Z,103111.00
2023-02-14T10:48:37.500Z,103106.44
2023-02-14T10:51:15.424Z,103114.09
2023-02-14T10:53:51.276Z,103115.44
2023-02-14T10:56:41.184Z,103099.84
2023-02-14T10:59:25.820Z,103107.44
2023-02-14T11:01:54.290Z,103100.66
2023-02-14T11:04:23.874Z,103109.56
2023-02-14T11:06:50.994Z,103105.81
2023-02-14T11:09:18.327Z,103092.47
2023-02-14T11:11:57.237Z,103096.97
2023-02-14T11:14:28.696Z,103092.06
2023-02-14T11:16:57.819Z,103089.22
2023-02-14T11:19:37.491Z,103094.69
2023-02-14T11:22:04.763Z,103092.28
2023-02-14T11:24:33.027Z,103087.91
2023-02-14T11:27:17.306Z,103077.88
2023-02-14T11:29:48.190Z,103084.91
2023-02-14T11:32:22.613Z,103074.72
2023-02-14T11:34:52.594Z,103076.06
2023-02-14T11:37:22.092Z,103061.56
2023-02-14T11:39:57.893Z,103058.91
2023-02-14T11:42:42.650Z,103062.03
2023-02-14T11:45:32.783Z,103061.91
2023-02-14T11:48:24.831Z,103060.38
2023-02-14T11:51:04.590Z,103043.19
2023-02-14T11:53:48.840Z,103046.47
2023-02-14T11:56:17.677Z,103041.06
2023-02-14T11:59:03.046Z,103035.91
2023-02-14T12:01:35.546Z,103034.91
2023-02-14T12:04:06.241Z,103023.81
2023-02-14T12:06:35.616Z,103025.63
2023-02-14T12:09:23.739Z,103020.44
2023-02-14T12:12:00.947Z,103010.84
2023-02-14T12:14:34.201Z,103007.88
2023-02-14T12:17:25.221Z,103003.66
2023-02-14T12:20:00.941Z,103014.00
2023-02-14T12:22:41.251Z,103006.94
2023-02-14T12:25:26.168Z,103003.25
2023-02-14T12:28:01.472Z,103002.78
2023-02-14T12:30:32.474Z,103000.03
2023-02-14T12:33:00.031Z,102997.03
2023-02-14T12:35:57.614Z,102997.81
2023-02-14T12:38:52.429Z,102996.78
2023-02-14T12:41:25.002Z,102992.97
2023-02-14T12:43:55.849Z,102990.22
2023-02-14T12:46:40.494Z,102988.03
2023-02-14T12:49:28.373Z,102985.19
2023-02-14T12:52:22.560Z,102974.38
2023-02-14T12:55:16.945Z,102966.75
2023-02-14T12:58:28.453Z,102964.81
2023-02-14T13:01:10.046Z,102968.41
2023-02-14T13:03:48.925Z,102954.97
2023-02-14T13:06:22.112Z,102954.88
2023-02-14T13:08:51.700Z,102954.16
2023-02-14T13:11:34.507Z,102952.69
2023-02-14T13:14:29.829Z,102942.69
2023-02-14T13:17:07.486Z,102937.69
2023-02-14T13:19:46.215Z,102942.03
2023-02-14T13:22:20.722Z,102935.00
2023-02-14T13:24:50.577Z,102931.81
2023-02-14T13:27:23.857Z,102927.97
2023-02-14T13:29:55.932Z,102934.19
2023-02-14T13:32:27.404Z,102917.88
2023-02-14T13:34:54.836Z,102916.28
2023-02-14T13:37:24.707Z,102910.47
2023-02-14T13:39:51.333Z,102922.13
2023-02-14T13:42:46.831Z,102922.78
2023-02-14T13:45:37.346Z,102918.41
2023-02-14T13:48:06.830Z,102911.03
2023-02-14T13:50:49.768Z,102906.69
2023-02-14T13:53:31.668Z,102910.97
2023-02-14T13:55:59.132Z,102898.84
2023-02-14T13:58:26.289Z,102910.59
2023-02-14T14:00:53.573Z,102903.28
2023-02-14T14:03:26.235Z,102902.94
2023-02-14T14:06:08.711Z,102903.19
2023-02-14T14:08:38.404Z,102900.06
2023-02-14T14:11:22.321Z,102885.84
2023-02-14T14:13:57.315Z,102882.81
2023-02-14T14:16:24.418Z,102886.44
2023-02-14T14:19:18.105Z,102887.06
2023-02-14T14:22:07.198Z,102888.13
2023-02-14T14:24:36.128Z,102894.41
2023-02-14T14:27:21.835Z,102892.84
2023-02-14T14:29:55.972Z,102884.78
2023-02-14T14:32:39.085Z,102879.50
2023-02-14T14:35:13.627Z,102883.91
2023-02-14T14:37:53.124Z,102887.16
2023-02-14T14:40:32.690Z,102878.94
2023-02-14T14:43:22.782Z,102872.16
2023-02-14T14:45:53.413Z,102878.69
2023-02-14T14:48:55.947Z,102876.50
2023-02-14T14:51:34.528Z,102875.00
2023-02-14T14:54:05.886Z,102871.69
2023-02-14T14:56:37.097Z,102870.44
2023-02-14T14:59:25.991Z,102869.66
2023-02-14T15:01:54.436Z,102864.38
2023-02-14T15:04:30.001Z,102862.97
2023-02-14T15:06:58.645Z,102856.06
2023-02-14T15:09:33.725Z,102854.72
2023-02-14T15:12:20.815Z,102864.56
2023-02-14T15:14:54.589Z,102847.69
2023-02-14T15:17:28.470Z,102848.81
2023-02-14T15:20:05.624Z,102849.66
2023-02-14T15:22:44.828Z,102851.69
2023-02-14T15:25:18.361Z,102848.09
2023-02-14T15:27:45.573Z,102842.72
2023-02-14T15:30:34.105Z,102852.53
2023-02-14T15:33:06.080Z,102836.75
2023-02-14T15:35:36.879Z,102837.13
2023-02-14T15:38:06.606Z,102835.38
2023-02-14T15:40:35.616Z,102829.59
2023-02-14T15:43:25.043Z,102827.56
2023-02-14T15:45:57.397Z,102824.81
2023-02-14T15:48:34.606Z,102819.69
2023-02-14T15:51:05.011Z,102826.59
2023-02-14T15:53:44.554Z,102819.53
2023-02-14T15:56:26.174Z,102821.69
2023-02-14T15:58:59.985Z,102827.91
2023-02-14T16:01:27.360Z,102826.13
2023-02-14T16:03:58.031Z,102816.56
2023-02-14T16:06:44.547Z,102812.50
2023-02-14T16:09:28.965Z,102813.63
2023-02-14T16:11:55.674Z,102816.13
2023-02-14T16:14:35.306Z,102806.50
2023-02-14T16:17:11.103Z,102815.59
2023-02-14T16:19:39.077Z,102806.31
2023-02-14T16:22:07.125Z,102809.81
2023-02-14T16:24:34.546Z,102807.34
2023-02-14T16:27:06.780Z,102812.38
2023-02-14T16:29:35.589Z,102805.31
2023-02-14T16:32:17.792Z,102803.53
2023-02-14T16:34:47.199Z,102803.00
2023-02-14T16:37:30.169Z,102802.78
2023-02-14T16:39:57.857Z,102808.91
2023-02-14T16:42:25.213Z,102809.97
2023-02-14T16:44:51.948Z,102808.88
2023-02-14T16:47:20.332Z,102804.63
2023-02-14T16:49:47.419Z,102808.50
2023-02-14T16:52:17.758Z,102801.91
2023-02-14T16:54:44.626Z,102800.47
2023-02-14T16:57:40.976Z,102805.69
2023-02-14T17:00:09.559Z,102800.50
2023-02-14T17:02:36.966Z,102804.88
2023-02-14T17:05:04.999Z,102802.88
2023-02-14T17:07:32.868Z,102803.84
2023-02-14T17:10:05.849Z,102813.09
2023-02-14T17:12:36.413Z,102819.19
2023-02-14T17:15:08.399Z,102811.94
2023-02-14T17:17:37.136Z,102810.25
2023-02-14T17:20:06.245Z,102813.13
2023-02-14T17:22:34.448Z,102811.50
2023-02-14T17:25:01.237Z,102807.25
2023-02-14T17:27:27.901Z,102810.75
2023-02-14T17:29:54.647Z,102808.22
2023-02-14T17:32:21.385Z,102810.75
2023-02-14T17:34:49.314Z,102805.53
2023-02-14T17:37:18.772Z,102805.50
2023-02-14T17:39:45.724Z,102799.44
2023-02-14T17:42:12.384Z,102805.41
2023-02-14T17:44:39.283Z,102809.63
2023-02-14T17:47:06.463Z,102804.28
2023-02-14T17:49:33.349Z,102796.91
2023-02-14T17:52:00.081Z,102803.41
2023-02-14T17:54:26.738Z,102803.56
2023-02-14T17:56:53.496Z,102804.41
2023-02-14T17:59:20.411Z,102798.19
2023-02-14T18:01:47.159Z,102786.72
2023-02-14T18:04:13.887Z,102788.44
2023-02-14T18:06:40.702Z,102784.19
2023-02-14T18:09:07.469Z,102786.03
2023-02-14T18:11:34.215Z,102769.97
2023-02-14T18:14:01.776Z,102779.31
2023-02-14T18:16:28.600Z,102777.22
2023-02-14T18:18:55.310Z,102778.97
2023-02-14T18:21:24.174Z,102761.19
2023-02-14T18:23:50.960Z,102771.91
2023-02-14T18:26:18.532Z,102763.91
2023-02-14T18:28:45.666Z,102765.72
2023-02-14T18:31:14.734Z,102771.19
2023-02-14T18:33:42.360Z,102766.88
2023-02-14T18:36:14.471Z,102768.38
2023-02-14T18:38:43.281Z,102759.09
2023-02-14T18:41:13.212Z,102760.94
2023-02-14T18:43:44.465Z,102765.13
2023-02-14T18:46:13.698Z,102751.00
2023-02-14T18:48:40.729Z,102764.22
2023-02-14T18:51:09.445Z,102758.88
2023-02-14T18:53:37.460Z,102754.59
2023-02-14T18:56:06.631Z,102755.56
2023-02-14T18:58:34.226Z,102757.28
2023-02-14T19:01:09.289Z,102758.38
2023-02-14T19:03:36.334Z,102754.97
2023-02-14T19:06:03.332Z,102761.03
2023-02-14T19:08:32.309Z,102760.31
2023-02-14T19:10:59.578Z,102754.22
2023-02-14T19:13:29.220Z,102756.66
2023-02-14T19:15:56.463Z,102747.28
2023-02-14T19:18:25.400Z,102746.47
2023-02-14T19:20:52.986Z,102745.59
2023-02-14T19:23:19.856Z,102744.75
2023-02-14T19:25:46.513Z,102744.75
2023-02-14T19:28:13.552Z,102742.94
2023-02-14T19:30:40.384Z,102746.56
2023-02-14T19:33:07.169Z,102745.53
2023-02-14T19:35:33.951Z,102744.81
2023-02-14T19:38:03.439Z,102746.50
2023-02-14T19:40:30.911Z,102747.41
2023-02-14T19:42:57.822Z,102743.91
2023-02-14T19:45:24.651Z,102745.69
2023-02-14T19:47:51.825Z,102743.09
2023-02-14T19:50:19.424Z,102749.97
2023-02-14T19:52:47.064Z,102750.88
2023-02-14T19:55:21.914Z,102756.84
2023-02-14T19:57:48.576Z,102746.50
2023-02-14T20:00:16.317Z,102741.34
2023-02-14T20:02:48.038Z,102738.72
2023-02-14T20:05:16.583Z,102740.31
2023-02-14T20:07:43.737Z,102741.19
2023-02-14T20:10:11.876Z,102736.84
2023-02-14T20:12:39.029Z,102737.81
2023-02-14T20:15:06.229Z,102738.66
2023-02-14T20:17:33.409Z,102734.38
2023-02-14T20:20:00.217Z,102737.88
2023-02-14T20:22:26.996Z,102730.06
2023-02-14T20:24:53.698Z,102724.84
2023-02-14T20:27:20.576Z,102723.09
2023-02-14T20:29:47.319Z,102723.19
2023-02-14T20:32:15.932Z,102719.72
2023-02-14T20:34:42.998Z,102728.44
2023-02-14T20:37:11.148Z,102722.31
2023-02-14T20:39:38.595Z,102716.06
2023-02-14T20:42:06.051Z,102713.63
2023-02-14T20:44:33.795Z,102705.81
2023-02-14T20:47:00.612Z,102710.19
2023-02-14T20:49:28.480Z,102704.16
2023-02-14T20:51:56.081Z,102705.88
2023-02-14T20:54:24.945Z,102703.31
2023-02-14T20:56:52.860Z,102699.81
2023-02-14T20:59:24.340Z,102700.72
2023-02-14T21:01:51.509Z,102700.72
2023-02-14T21:04:18.148Z,102705.09
2023-02-14T21:06:44.849Z,102698.16
2023-02-14T21:09:11.525Z,102696.44
2023-02-14T21:11:39.556Z,102705.06
2023-02-14T21:14:06.360Z,102699.88
2023-02-14T21:16:33.205Z,102693.78
2023-02-14T21:19:00.203Z,102686.00
2023-02-14T21:21:36.064Z,102686.88
2023-02-14T21:24:14.670Z,102680.78
2023-02-14T21:26:42.607Z,102674.72
2023-02-14T21:29:09.792Z,102669.50
2023-02-14T21:31:37.247Z,102672.09
2023-02-14T21:34:04.870Z,102675.56
2023-02-14T21:36:35.922Z,102675.56
2023-02-14T21:39:03.770Z,102686.88
2023-02-14T21:41:31.202Z,102685.13
2023-02-14T21:43:59.620Z,102683.41
2023-02-14T21:46:38.871Z,102681.66
2023-02-14T21:49:25.385Z,102676.47
2023-02-14T21:51:52.128Z,102683.41
2023-02-14T21:54:19.003Z,102674.72
2023-02-14T21:56:46.040Z,102677.34
2023-02-14T21:59:12.829Z,102671.22
2023-02-14T22:01:41.828Z,102681.66
2023-02-14T22:04:10.935Z,102678.97
2023-02-14T22:06:39.201Z,102669.50
2023-02-14T22:09:07.014Z,102666.84
2023-02-14T22:11:34.696Z,102661.72
2023-02-14T22:14:02.022Z,102656.47
2023-02-14T22:16:28.788Z,102662.50
2023-02-14T22:18:55.630Z,102657.38
2023-02-14T22:21:24.478Z,102656.44
2023-02-14T22:23:51.417Z,102657.34
2023-02-14T22:26:23.717Z,102661.72
2023-02-14T22:28:53.823Z,102655.63
2023-02-14T22:31:20.816Z,102657.41
2023-02-14T22:33:48.832Z,102648.72
2023-02-14T22:36:16.032Z,102641.78
2023-02-14T22:38:42.997Z,102644.38
2023-02-14T22:41:13.960Z,102640.03
2023-02-14T22:43:41.872Z,102645.22
2023-02-14T22:46:20.235Z,102635.69
2023-02-14T22:48:48.585Z,102641.72
2023-02-14T22:51:35.897Z,102634.84
2023-02-14T22:54:06.123Z,102636.56
2023-02-14T22:56:35.613Z,102643.47
2023-02-14T22:59:05.463Z,102637.34
2023-02-14T23:01:34.790Z,102638.25
2023-02-14T23:04:03.290Z,102639.16
2023-02-14T23:06:32.447Z,102651.25
2023-02-14T23:08:59.335Z,102638.28
2023-02-14T23:11:29.069Z,102633.03
2023-02-14T23:14:14.762Z,102633.94
2023-02-14T23:17:01.220Z,102632.97
2023-02-14T23:19:49.046Z,102629.56
2023-02-14T23:22:23.711Z,102626.06
2023-02-14T23:24:52.236Z,102617.41
2023-02-14T23:27:22.012Z,102627.00
2023-02-14T23:29:48.930Z,102623.50
2023-02-14T23:32:16.505Z,102615.69
2023-02-14T23:34:45.005Z,102621.75
2023-02-14T23:37:13.642Z,102619.13
2023-02-14T23:39:40.857Z,102612.31
2023-02-14T23:42:11.015Z,102610.53
2023-02-14T23:44:37.979Z,102615.72
2023-02-14T23:47:06.499Z,102615.69
2023-02-14T23:49:34.907Z,102608.78
2023-02-14T23:52:02.108Z,102609.66
2023-02-14T23:54:29.021Z,102607.91
2023-02-14T23:56:57.632Z,102608.75
2023-02-14T23:59:24.528Z,102609.66
